sensor_id;sensor_type;location;lat;lon;timestamp;pressure;altitude;pressure_sealevel;temperature;humidity
10606;BME280;5350;42.698;23.148;2023-03-31T00:00:56;93574.38;;;11.85;41.57
10606;BME280;5350;42.698;23.148;2023-03-31T00:03:24;93571.16;;;11.88;41.60
10606;BME280;5350;42.698;23.148;2023-03-31T00:05:54;93570.97;;;11.84;41.44
10606;BME280;5350;42.698;23.148;2023-03-31T00:08:22;93571.56;;;11.81;41.47
10606;BME280;5350;42.698;23.148;2023-03-31T00:10:50;93576.91;;;11.90;41.38
10606;BME280;5350;42.698;23.148;2023-03-31T00:13:18;93581.53;;;11.84;41.97
10606;BME280;5350;42.698;23.148;2023-03-31T00:15:44;93570.97;;;11.84;41.86
10606;BME280;5350;42.698;23.148;2023-03-31T00:18:11;93572.94;;;11.79;41.90
10606;BME280;5350;42.698;23.148;2023-03-31T00:20:38;93572.34;;;11.82;41.92
10606;BME280;5350;42.698;23.148;2023-03-31T00:23:07;93582.31;;;11.71;42.13
10606;BME280;5350;42.698;23.148;2023-03-31T00:25:37;93570.41;;;11.74;42.24
10606;BME280;5350;42.698;23.148;2023-03-31T00:28:04;93571.22;;;11.74;42.33
10606;BME280;5350;42.698;23.148;2023-03-31T00:30:32;93575.50;;;11.70;42.58
10606;BME280;5350;42.698;23.148;2023-03-31T00:32:59;93556.97;;;11.62;42.46
10606;BME280;5350;42.698;23.148;2023-03-31T00:35:26;93568.75;;;11.64;42.91
10606;BME280;5350;42.698;23.148;2023-03-31T00:37:52;93569.25;;;11.66;43.04
10606;BME280;5350;42.698;23.148;2023-03-31T00:40:22;93565.03;;;11.65;43.05
10606;BME280;5350;42.698;23.148;2023-03-31T00:42:48;93560.47;;;11.71;42.93
10606;BME280;5350;42.698;23.148;2023-03-31T00:45:24;93555.09;;;11.62;42.95
10606;BME280;5350;42.698;23.148;2023-03-31T00:47:58;93559.88;;;11.60;43.29
10606;BME280;5350;42.698;23.148;2023-03-31T00:50:30;93556.28;;;11.56;42.95
10606;BME280;5350;42.698;23.148;2023-03-31T00:52:59;93557.47;;;11.50;43.20
10606;BME280;5350;42.698;23.148;2023-03-31T00:55:33;93555.78;;;11.54;42.83
10606;BME280;5350;42.698;23.148;2023-03-31T00:58:01;93557.06;;;11.57;43.07
10606;BME280;5350;42.698;23.148;2023-03-31T01:00:29;93581.56;;;11.57;42.92
10606;BME280;5350;42.698;23.148;2023-03-31T01:02:59;93551.59;;;11.53;43.10
10606;BME280;5350;42.698;23.148;2023-03-31T01:05:30;93540.78;;;11.55;43.03
10606;BME280;5350;42.698;23.148;2023-03-31T01:07:58;93547.72;;;11.51;43.01
10606;BME280;5350;42.698;23.148;2023-03-31T01:10:27;93534.13;;;11.57;42.74
10606;BME280;5350;42.698;23.148;2023-03-31T01:12:56;93553.34;;;11.58;42.70
10606;BME280;5350;42.698;23.148;2023-03-31T01:15:23;93547.00;;;11.59;42.77
10606;BME280;5350;42.698;23.148;2023-03-31T01:17:51;93555.78;;;11.54;42.78
10606;BME280;5350;42.698;23.148;2023-03-31T01:20:28;93560.84;;;11.64;42.62
10606;BME280;5350;42.698;23.148;2023-03-31T01:23:26;93560.06;;;11.64;42.97
10606;BME280;5350;42.698;23.148;2023-03-31T01:26:27;93564.38;;;11.60;43.02
10606;BME280;5350;42.698;23.148;2023-03-31T01:29:08;93569.25;;;11.53;43.53
10606;BME280;5350;42.698;23.148;2023-03-31T01:32:09;93559.78;;;11.52;43.24
10606;BME280;5350;42.698;23.148;2023-03-31T01:41:22;93576.09;;;11.40;43.92
10606;BME280;5350;42.698;23.148;2023-03-31T01:43:59;93577.28;;;11.34;43.96
10606;BME280;5350;42.698;23.148;2023-03-31T01:46:32;93576.59;;;11.28;44.25
10606;BME280;5350;42.698;23.148;2023-03-31T01:49:08;93577.69;;;11.27;44.87
10606;BME280;5350;42.698;23.148;2023-03-31T01:51:42;93595.13;;;11.23;44.42
10606;BME280;5350;42.698;23.148;2023-03-31T01:54:14;93599.63;;;11.37;44.93
10606;BME280;5350;42.698;23.148;2023-03-31T01:56:48;93608.66;;;11.31;45.58
10606;BME280;5350;42.698;23.148;2023-03-31T01:59:22;93608.97;;;11.29;46.38
10606;BME280;5350;42.698;23.148;2023-03-31T02:01:55;93608.88;;;11.34;46.69
10606;BME280;5350;42.698;23.148;2023-03-31T02:04:26;93623.22;;;11.28;46.82
10606;BME280;5350;42.698;23.148;2023-03-31T02:06:58;93635.78;;;11.17;47.74
10606;BME280;5350;42.698;23.148;2023-03-31T02:09:30;93629.03;;;10.84;49.97
10606;BME280;5350;42.698;23.148;2023-03-31T02:12:03;93636.31;;;10.74;53.64
10606;BME280;5350;42.698;23.148;2023-03-31T02:14:32;93634.91;;;10.63;55.85
10606;BME280;5350;42.698;23.148;2023-03-31T02:17:01;93641.31;;;10.57;56.57
10606;BME280;5350;42.698;23.148;2023-03-31T02:19:30;93648.28;;;10.48;57.88
10606;BME280;5350;42.698;23.148;2023-03-31T02:21:59;93648.41;;;10.42;63.44
10606;BME280;5350;42.698;23.148;2023-03-31T02:24:29;93638.09;;;10.27;66.49
10606;BME280;5350;42.698;23.148;2023-03-31T02:27:03;93648.81;;;10.31;71.67
10606;BME280;5350;42.698;23.148;2023-03-31T02:29:31;93655.03;;;10.21;74.45
10606;BME280;5350;42.698;23.148;2023-03-31T02:32:02;93670.31;;;10.19;78.11
10606;BME280;5350;42.698;23.148;2023-03-31T02:34:30;93656.47;;;9.90;81.45
10606;BME280;5350;42.698;23.148;2023-03-31T02:36:57;93654.03;;;9.75;85.07
10606;BME280;5350;42.698;23.148;2023-03-31T02:39:27;93644.19;;;9.86;88.54
10606;BME280;5350;42.698;23.148;2023-03-31T02:41:56;93648.66;;;9.85;90.23
10606;BME280;5350;42.698;23.148;2023-03-31T02:44:24;93639.72;;;9.86;90.85
10606;BME280;5350;42.698;23.148;2023-03-31T02:46:52;93638.59;;;9.92;92.19
10606;BME280;5350;42.698;23.148;2023-03-31T02:49:19;93626.44;;;9.96;94.24
10606;BME280;5350;42.698;23.148;2023-03-31T02:52:26;93622.47;;;9.80;94.04
10606;BME280;5350;42.698;23.148;2023-03-31T02:55:14;93614.78;;;9.65;92.93
10606;BME280;5350;42.698;23.148;2023-03-31T03:01:01;93599.31;;;9.45;91.22
10606;BME280;5350;42.698;23.148;2023-03-31T03:03:39;93590.13;;;9.42;91.07
10606;BME280;5350;42.698;23.148;2023-03-31T03:06:17;93585.78;;;9.33;91.54
10606;BME280;5350;42.698;23.148;2023-03-31T03:09:02;93579.53;;;9.29;92.16
10606;BME280;5350;42.698;23.148;2023-03-31T03:11:38;93576.84;;;9.34;90.21
10606;BME280;5350;42.698;23.148;2023-03-31T03:14:17;93572.41;;;9.34;88.73
10606;BME280;5350;42.698;23.148;2023-03-31T03:16:49;93572.09;;;9.36;88.43
10606;BME280;5350;42.698;23.148;2023-03-31T03:19:20;93579.34;;;9.44;88.70
10606;BME280;5350;42.698;23.148;2023-03-31T03:21:48;93584.06;;;9.47;88.31
10606;BME280;5350;42.698;23.148;2023-03-31T03:24:16;93565.94;;;9.45;86.95
10606;BME280;5350;42.698;23.148;2023-03-31T03:26:43;93578.91;;;9.55;84.18
10606;BME280;5350;42.698;23.148;2023-03-31T03:29:11;93558.28;;;9.49;84.44
10606;BME280;5350;42.698;23.148;2023-03-31T03:31:39;93568.66;;;9.59;85.32
10606;BME280;5350;42.698;23.148;2023-03-31T03:34:07;93562.25;;;9.65;82.67
10606;BME280;5350;42.698;23.148;2023-03-31T03:36:34;93561.03;;;9.57;82.48
10606;BME280;5350;42.698;23.148;2023-03-31T03:39:02;93565.81;;;9.74;80.47
10606;BME280;5350;42.698;23.148;2023-03-31T03:41:29;93556.66;;;9.72;80.09
10606;BME280;5350;42.698;23.148;2023-03-31T03:43:57;93563.69;;;9.76;80.54
10606;BME280;5350;42.698;23.148;2023-03-31T03:46:24;93573.06;;;9.82;77.96
10606;BME280;5350;42.698;23.148;2023-03-31T03:48:51;93559.34;;;9.85;76.72
10606;BME280;5350;42.698;23.148;2023-03-31T03:51:19;93568.69;;;9.91;75.45
10606;BME280;5350;42.698;23.148;2023-03-31T03:53:46;93566.56;;;9.93;77.02
10606;BME280;5350;42.698;23.148;2023-03-31T03:56:13;93573.75;;;10.06;74.55
10606;BME280;5350;42.698;23.148;2023-03-31T03:58:39;93575.19;;;10.17;72.31
10606;BME280;5350;42.698;23.148;2023-03-31T04:01:06;93579.44;;;10.13;74.54
10606;BME280;5350;42.698;23.148;2023-03-31T04:03:33;93574.75;;;10.10;77.23
10606;BME280;5350;42.698;23.148;2023-03-31T04:06:00;93583.13;;;10.12;76.93
10606;BME280;5350;42.698;23.148;2023-03-31T04:08:28;93584.59;;;10.18;78.17
10606;BME280;5350;42.698;23.148;2023-03-31T04:10:54;93591.81;;;10.13;77.26
10606;BME280;5350;42.698;23.148;2023-03-31T04:13:21;93585.59;;;10.22;73.60
10606;BME280;5350;42.698;23.148;2023-03-31T04:15:48;93584.91;;;10.17;74.09
10606;BME280;5350;42.698;23.148;2023-03-31T04:18:15;93590.53;;;10.10;74.58
10606;BME280;5350;42.698;23.148;2023-03-31T04:20:47;93579.34;;;10.00;75.74
10606;BME280;5350;42.698;23.148;2023-03-31T04:23:19;93577.38;;;9.92;74.76
10606;BME280;5350;42.698;23.148;2023-03-31T04:25:49;93596.13;;;9.85;76.12
10606;BME280;5350;42.698;23.148;2023-03-31T04:28:16;93580.50;;;9.75;75.57
10606;BME280;5350;42.698;23.148;2023-03-31T04:30:42;93589.03;;;9.67;76.29
10606;BME280;5350;42.698;23.148;2023-03-31T04:33:09;93577.53;;;9.63;76.68
10606;BME280;5350;42.698;23.148;2023-03-31T04:35:40;93588.31;;;9.61;76.24
10606;BME280;5350;42.698;23.148;2023-03-31T04:38:17;93577.38;;;9.54;76.62
10606;BME280;5350;42.698;23.148;2023-03-31T04:40:45;93573.59;;;9.42;76.78
10606;BME280;5350;42.698;23.148;2023-03-31T04:43:14;93574.72;;;9.36;75.72
10606;BME280;5350;42.698;23.148;2023-03-31T04:45:41;93576.66;;;9.30;76.45
10606;BME280;5350;42.698;23.148;2023-03-31T04:48:08;93563.56;;;9.25;76.49
10606;BME280;5350;42.698;23.148;2023-03-31T04:50:35;93563.13;;;9.18;76.70
10606;BME280;5350;42.698;23.148;2023-03-31T04:53:02;93555.00;;;9.20;77.57
10606;BME280;5350;42.698;23.148;2023-03-31T04:55:28;93555.59;;;9.12;77.46
10606;BME280;5350;42.698;23.148;2023-03-31T04:57:55;93548.34;;;9.04;77.35
10606;BME280;5350;42.698;23.148;2023-03-31T05:00:23;93547.38;;;9.18;77.33
10606;BME280;5350;42.698;23.148;2023-03-31T05:02:50;93543.41;;;9.21;77.23
10606;BME280;5350;42.698;23.148;2023-03-31T05:05:17;93544.91;;;9.27;77.25
10606;BME280;5350;42.698;23.148;2023-03-31T05:07:44;93547.00;;;9.30;75.73
10606;BME280;5350;42.698;23.148;2023-03-31T05:10:11;93540.75;;;9.26;76.07
10606;BME280;5350;42.698;23.148;2023-03-31T05:12:38;93543.56;;;9.29;75.98
10606;BME280;5350;42.698;23.148;2023-03-31T05:15:06;93528.88;;;9.28;75.55
10606;BME280;5350;42.698;23.148;2023-03-31T05:17:34;93538.97;;;9.40;75.96
10606;BME280;5350;42.698;23.148;2023-03-31T05:20:03;93528.34;;;9.50;75.65
10606;BME280;5350;42.698;23.148;2023-03-31T05:22:33;93537.19;;;9.54;74.45
10606;BME280;5350;42.698;23.148;2023-03-31T05:25:00;93527.97;;;9.56;74.28
10606;BME280;5350;42.698;23.148;2023-03-31T05:27:28;93523.38;;;9.67;74.98
10606;BME280;5350;42.698;23.148;2023-03-31T05:29:55;93516.53;;;9.66;74.26
10606;BME280;5350;42.698;23.148;2023-03-31T05:32:21;93525.91;;;9.72;74.25
10606;BME280;5350;42.698;23.148;2023-03-31T05:34:49;93513.78;;;9.76;73.31
10606;BME280;5350;42.698;23.148;2023-03-31T05:37:21;93522.06;;;9.83;74.30
10606;BME280;5350;42.698;23.148;2023-03-31T05:39:48;93515.88;;;9.93;72.86
10606;BME280;5350;42.698;23.148;2023-03-31T05:42:15;93527.16;;;9.93;71.58
10606;BME280;5350;42.698;23.148;2023-03-31T05:44:42;93532.06;;;10.00;72.68
10606;BME280;5350;42.698;23.148;2023-03-31T05:47:09;93521.97;;;10.07;72.40
10606;BME280;5350;42.698;23.148;2023-03-31T05:49:36;93520.84;;;10.13;71.63
10606;BME280;5350;42.698;23.148;2023-03-31T05:52:05;93520.25;;;10.16;70.51
10606;BME280;5350;42.698;23.148;2023-03-31T05:54:31;93514.25;;;10.15;69.99
10606;BME280;5350;42.698;23.148;2023-03-31T05:56:58;93518.91;;;10.18;70.78
10606;BME280;5350;42.698;23.148;2023-03-31T05:59:25;93521.25;;;10.20;69.69
10606;BME280;5350;42.698;23.148;2023-03-31T06:01:52;93529.84;;;10.25;69.42
10606;BME280;5350;42.698;23.148;2023-03-31T06:04:18;93531.69;;;10.25;70.03
10606;BME280;5350;42.698;23.148;2023-03-31T06:06:45;93526.34;;;10.30;70.50
10606;BME280;5350;42.698;23.148;2023-03-31T06:09:16;93539.59;;;10.38;68.33
10606;BME280;5350;42.698;23.148;2023-03-31T06:11:43;93535.81;;;10.44;69.05
10606;BME280;5350;42.698;23.148;2023-03-31T06:14:10;93538.56;;;10.53;68.92
10606;BME280;5350;42.698;23.148;2023-03-31T06:16:37;93527.66;;;10.60;66.67
10606;BME280;5350;42.698;23.148;2023-03-31T06:19:04;93530.31;;;10.60;68.47
10606;BME280;5350;42.698;23.148;2023-03-31T06:21:31;93533.78;;;10.69;67.32
10606;BME280;5350;42.698;23.148;2023-03-31T06:23:59;93529.72;;;10.76;65.96
10606;BME280;5350;42.698;23.148;2023-03-31T06:26:27;93527.38;;;10.88;67.97
10606;BME280;5350;42.698;23.148;2023-03-31T06:28:54;93520.66;;;10.96;65.69
10606;BME280;5350;42.698;23.148;2023-03-31T06:31:22;93533.22;;;10.99;66.21
10606;BME280;5350;42.698;23.148;2023-03-31T06:33:49;93532.53;;;11.07;65.97
10606;BME280;5350;42.698;23.148;2023-03-31T06:36:17;93524.63;;;10.93;65.99
10606;BME280;5350;42.698;23.148;2023-03-31T06:38:45;93527.59;;;11.05;65.67
10606;BME280;5350;42.698;23.148;2023-03-31T06:41:13;93541.28;;;11.16;64.75
10606;BME280;5350;42.698;23.148;2023-03-31T06:43:42;93541.78;;;11.32;66.24
10606;BME280;5350;42.698;23.148;2023-03-31T06:46:09;93533.97;;;11.40;64.74
10606;BME280;5350;42.698;23.148;2023-03-31T06:48:36;93542.75;;;11.49;67.07
10606;BME280;5350;42.698;23.148;2023-03-31T06:51:04;93542.69;;;11.63;65.30
10606;BME280;5350;42.698;23.148;2023-03-31T06:53:32;93532.66;;;11.78;63.87
10606;BME280;5350;42.698;23.148;2023-03-31T06:55:58;93543.91;;;11.92;64.58
10606;BME280;5350;42.698;23.148;2023-03-31T06:58:25;93537.97;;;11.87;62.08
10606;BME280;5350;42.698;23.148;2023-03-31T07:00:53;93531.63;;;11.88;62.93
10606;BME280;5350;42.698;23.148;2023-03-31T07:03:20;93524.03;;;11.86;63.84
10606;BME280;5350;42.698;23.148;2023-03-31T07:05:50;93510.31;;;11.76;62.85
10606;BME280;5350;42.698;23.148;2023-03-31T07:08:17;93494.78;;;11.61;64.43
10606;BME280;5350;42.698;23.148;2023-03-31T07:10:44;93485.63;;;11.72;65.46
10606;BME280;5350;42.698;23.148;2023-03-31T07:13:13;93480.91;;;11.82;63.63
10606;BME280;5350;42.698;23.148;2023-03-31T07:15:40;93475.50;;;11.87;64.22
10606;BME280;5350;42.698;23.148;2023-03-31T07:18:08;93472.75;;;11.92;63.24
10606;BME280;5350;42.698;23.148;2023-03-31T07:20:37;93480.56;;;12.06;63.73
10606;BME280;5350;42.698;23.148;2023-03-31T07:23:04;93483.50;;;12.27;63.78
10606;BME280;5350;42.698;23.148;2023-03-31T07:25:31;93486.97;;;12.36;61.64
10606;BME280;5350;42.698;23.148;2023-03-31T07:27:58;93496.66;;;12.49;61.89
10606;BME280;5350;42.698;23.148;2023-03-31T07:30:25;93493.88;;;12.54;60.16
10606;BME280;5350;42.698;23.148;2023-03-31T07:32:52;93492.41;;;12.70;63.08
10606;BME280;5350;42.698;23.148;2023-03-31T07:35:21;93493.28;;;12.96;60.01
10606;BME280;5350;42.698;23.148;2023-03-31T07:37:49;93496.38;;;12.98;58.97
10606;BME280;5350;42.698;23.148;2023-03-31T07:40:18;93490.78;;;13.00;59.37
10606;BME280;5350;42.698;23.148;2023-03-31T07:42:46;93499.69;;;13.04;56.68
10606;BME280;5350;42.698;23.148;2023-03-31T07:45:14;93485.78;;;13.20;57.45
10606;BME280;5350;42.698;23.148;2023-03-31T07:47:41;93490.41;;;13.23;56.87
10606;BME280;5350;42.698;23.148;2023-03-31T07:50:09;93498.84;;;13.34;55.59
10606;BME280;5350;42.698;23.148;2023-03-31T07:52:39;93486.72;;;13.24;55.38
10606;BME280;5350;42.698;23.148;2023-03-31T07:55:07;93496.81;;;13.48;56.00
10606;BME280;5350;42.698;23.148;2023-03-31T07:57:33;93496.06;;;13.47;57.86
10606;BME280;5350;42.698;23.148;2023-03-31T08:00:00;93496.69;;;13.44;54.95
10606;BME280;5350;42.698;23.148;2023-03-31T08:02:30;93485.66;;;13.51;56.79
10606;BME280;5350;42.698;23.148;2023-03-31T08:04:57;93481.47;;;13.76;56.51
10606;BME280;5350;42.698;23.148;2023-03-31T08:07:24;93484.56;;;13.86;56.95
10606;BME280;5350;42.698;23.148;2023-03-31T08:09:53;93498.09;;;13.93;55.95
10606;BME280;5350;42.698;23.148;2023-03-31T08:12:19;93481.78;;;13.83;54.02
10606;BME280;5350;42.698;23.148;2023-03-31T08:14:46;93467.59;;;13.87;54.33
10606;BME280;5350;42.698;23.148;2023-03-31T08:17:13;93466.69;;;13.92;53.74
10606;BME280;5350;42.698;23.148;2023-03-31T08:19:40;93463.41;;;14.12;56.62
10606;BME280;5350;42.698;23.148;2023-03-31T08:22:07;93465.38;;;14.40;53.79
10606;BME280;5350;42.698;23.148;2023-03-31T08:24:33;93464.63;;;14.78;54.71
10606;BME280;5350;42.698;23.148;2023-03-31T08:27:01;93464.81;;;15.02;52.64
10606;BME280;5350;42.698;23.148;2023-03-31T08:29:28;93461.88;;;15.03;49.62
10606;BME280;5350;42.698;23.148;2023-03-31T08:31:55;93455.38;;;14.92;47.96
10606;BME280;5350;42.698;23.148;2023-03-31T08:34:22;93459.63;;;14.85;47.83
10606;BME280;5350;42.698;23.148;2023-03-31T08:36:48;93463.91;;;14.98;48.35
10606;BME280;5350;42.698;23.148;2023-03-31T08:39:15;93471.22;;;15.01;47.34
10606;BME280;5350;42.698;23.148;2023-03-31T08:41:50;93460.59;;;15.09;46.72
10606;BME280;5350;42.698;23.148;2023-03-31T08:44:25;93459.88;;;15.21;46.55
10606;BME280;5350;42.698;23.148;2023-03-31T08:46:56;93455.47;;;15.54;47.77
10606;BME280;5350;42.698;23.148;2023-03-31T08:49:25;93442.44;;;15.70;44.38
10606;BME280;5350;42.698;23.148;2023-03-31T08:51:57;93439.31;;;15.88;44.79
10606;BME280;5350;42.698;23.148;2023-03-31T08:54:30;93439.72;;;16.11;43.51
10606;BME280;5350;42.698;23.148;2023-03-31T08:56:58;93440.69;;;16.07;43.25
10606;BME280;5350;42.698;23.148;2023-03-31T08:59:29;93430.31;;;16.02;43.33
10606;BME280;5350;42.698;23.148;2023-03-31T09:02:03;93427.34;;;16.15;43.98
10606;BME280;5350;42.698;23.148;2023-03-31T09:07:36;93427.13;;;16.08;44.22
10606;BME280;5350;42.698;23.148;2023-03-31T09:10:20;93426.97;;;15.72;44.93
10606;BME280;5350;42.698;23.148;2023-03-31T09:12:55;93441.97;;;15.68;45.29
10606;BME280;5350;42.698;23.148;2023-03-31T09:15:26;93425.34;;;15.79;44.89
10606;BME280;5350;42.698;23.148;2023-03-31T09:17:57;93422.13;;;15.74;44.46
10606;BME280;5350;42.698;23.148;2023-03-31T09:20:29;93427.09;;;15.75;45.08
10606;BME280;5350;42.698;23.148;2023-03-31T09:23:00;93428.78;;;15.80;44.64
10606;BME280;5350;42.698;23.148;2023-03-31T09:25:32;93422.25;;;15.77;44.40
10606;BME280;5350;42.698;23.148;2023-03-31T09:28:01;93423.53;;;15.71;44.41
10606;BME280;5350;42.698;23.148;2023-03-31T09:30:33;93423.47;;;15.80;44.15
10606;BME280;5350;42.698;23.148;2023-03-31T09:33:09;93435.00;;;15.63;45.03
10606;BME280;5350;42.698;23.148;2023-03-31T09:35:37;93424.22;;;15.48;45.33
10606;BME280;5350;42.698;23.148;2023-03-31T09:38:04;93422.75;;;15.71;45.92
10606;BME280;5350;42.698;23.148;2023-03-31T09:40:31;93422.63;;;15.67;44.69
10606;BME280;5350;42.698;23.148;2023-03-31T09:42:59;93417.78;;;15.69;44.91
10606;BME280;5350;42.698;23.148;2023-03-31T09:45:27;93411.16;;;15.96;45.29
10606;BME280;5350;42.698;23.148;2023-03-31T09:47:58;93401.88;;;16.02;43.96
10606;BME280;5350;42.698;23.148;2023-03-31T09:50:26;93403.75;;;15.89;44.03
10606;BME280;5350;42.698;23.148;2023-03-31T09:52:56;93399.72;;;15.83;44.00
10606;BME280;5350;42.698;23.148;2023-03-31T09:55:26;93397.94;;;16.08;44.24
10606;BME280;5350;42.698;23.148;2023-03-31T09:57:54;93396.19;;;16.12;43.70
10606;BME280;5350;42.698;23.148;2023-03-31T10:00:22;93388.22;;;16.12;44.27
10606;BME280;5350;42.698;23.148;2023-03-31T10:02:50;93387.34;;;16.20;45.54
10606;BME280;5350;42.698;23.148;2023-03-31T10:05:25;93392.34;;;16.34;43.80
10606;BME280;5350;42.698;23.148;2023-03-31T10:07:53;93377.81;;;16.07;45.13
10606;BME280;5350;42.698;23.148;2023-03-31T10:10:38;93364.09;;;16.05;44.95
10606;BME280;5350;42.698;23.148;2023-03-31T10:13:09;93362.03;;;16.23;43.69
10606;BME280;5350;42.698;23.148;2023-03-31T10:15:40;93369.41;;;16.17;44.29
10606;BME280;5350;42.698;23.148;2023-03-31T10:18:12;93366.22;;;16.24;44.16
10606;BME280;5350;42.698;23.148;2023-03-31T10:20:43;93372.31;;;16.12;43.75
10606;BME280;5350;42.698;23.148;2023-03-31T10:23:16;93358.97;;;15.88;45.92
10606;BME280;5350;42.698;23.148;2023-03-31T10:25:44;93362.81;;;15.78;45.90
10606;BME280;5350;42.698;23.148;2023-03-31T10:28:14;93364.16;;;15.84;45.21
10606;BME280;5350;42.698;23.148;2023-03-31T10:30:46;93359.63;;;15.85;45.11
10606;BME280;5350;42.698;23.148;2023-03-31T10:33:16;93354.84;;;15.78;44.87
10606;BME280;5350;42.698;23.148;2023-03-31T10:35:46;93347.72;;;15.91;44.91
10606;BME280;5350;42.698;23.148;2023-03-31T10:38:16;93336.78;;;16.05;44.99
10606;BME280;5350;42.698;23.148;2023-03-31T10:40:50;93337.59;;;16.29;43.81
10606;BME280;5350;42.698;23.148;2023-03-31T10:43:18;93332.53;;;16.36;43.82
10606;BME280;5350;42.698;23.148;2023-03-31T10:45:47;93328.16;;;16.64;43.45
10606;BME280;5350;42.698;23.148;2023-03-31T10:48:22;93333.19;;;16.82;43.95
10606;BME280;5350;42.698;23.148;2023-03-31T10:50:52;93330.09;;;16.79;42.88
10606;BME280;5350;42.698;23.148;2023-03-31T10:53:19;93333.00;;;16.74;42.95
10606;BME280;5350;42.698;23.148;2023-03-31T10:55:56;93339.50;;;16.89;42.18
10606;BME280;5350;42.698;23.148;2023-03-31T10:58:33;93332.19;;;16.86;42.36
10606;BME280;5350;42.698;23.148;2023-03-31T11:01:09;93328.75;;;16.86;42.18
10606;BME280;5350;42.698;23.148;2023-03-31T11:03:52;93321.69;;;16.90;42.32
10606;BME280;5350;42.698;23.148;2023-03-31T11:06:26;93320.34;;;16.84;42.33
10606;BME280;5350;42.698;23.148;2023-03-31T11:09:07;93300.88;;;16.92;42.16
10606;BME280;5350;42.698;23.148;2023-03-31T11:11:53;93301.19;;;16.90;42.32
10606;BME280;5350;42.698;23.148;2023-03-31T11:14:31;93305.69;;;17.14;42.89
10606;BME280;5350;42.698;23.148;2023-03-31T11:17:06;93303.34;;;17.24;41.27
10606;BME280;5350;42.698;23.148;2023-03-31T11:19:42;93280.94;;;16.86;41.11
10606;BME280;5350;42.698;23.148;2023-03-31T11:22:17;93288.44;;;17.08;41.04
10606;BME280;5350;42.698;23.148;2023-03-31T11:25:03;93278.97;;;17.62;41.17
10606;BME280;5350;42.698;23.148;2023-03-31T11:27:46;93283.50;;;17.62;41.24
10606;BME280;5350;42.698;23.148;2023-03-31T11:30:19;93284.44;;;17.69;42.39
10606;BME280;5350;42.698;23.148;2023-03-31T11:33:01;93280.38;;;17.87;42.08
10606;BME280;5350;42.698;23.148;2023-03-31T11:35:42;93275.84;;;18.19;42.63
10606;BME280;5350;42.698;23.148;2023-03-31T11:38:27;93275.31;;;17.98;39.98
10606;BME280;5350;42.698;23.148;2023-03-31T11:41:01;93270.16;;;18.05;41.33
10606;BME280;5350;42.698;23.148;2023-03-31T11:43:33;93267.16;;;18.22;40.11
10606;BME280;5350;42.698;23.148;2023-03-31T11:46:05;93259.44;;;18.32;39.41
10606;BME280;5350;42.698;23.148;2023-03-31T11:48:39;93258.56;;;18.28;39.93
10606;BME280;5350;42.698;23.148;2023-03-31T11:51:14;93248.97;;;18.08;39.79
10606;BME280;5350;42.698;23.148;2023-03-31T11:53:44;93240.13;;;18.04;40.56
10606;BME280;5350;42.698;23.148;2023-03-31T11:56:13;93239.34;;;17.88;40.39
10606;BME280;5350;42.698;23.148;2023-03-31T11:58:44;93234.19;;;17.80;41.84
10606;BME280;5350;42.698;23.148;2023-03-31T12:01:17;93228.84;;;17.80;41.33
10606;BME280;5350;42.698;23.148;2023-03-31T12:03:53;93227.56;;;17.58;41.25
10606;BME280;5350;42.698;23.148;2023-03-31T12:06:26;93237.84;;;17.32;42.32
10606;BME280;5350;42.698;23.148;2023-03-31T12:09:02;93225.06;;;17.22;42.21
10606;BME280;5350;42.698;23.148;2023-03-31T12:11:35;93237.31;;;17.26;42.76
10606;BME280;5350;42.698;23.148;2023-03-31T12:14:14;93228.13;;;17.24;42.57
10606;BME280;5350;42.698;23.148;2023-03-31T12:16:45;93223.59;;;17.24;42.65
10606;BME280;5350;42.698;23.148;2023-03-31T12:19:17;93223.53;;;17.21;43.20
10606;BME280;5350;42.698;23.148;2023-03-31T12:21:49;93221.09;;;17.43;42.39
10606;BME280;5350;42.698;23.148;2023-03-31T12:24:18;93217.78;;;17.34;41.77
10606;BME280;5350;42.698;23.148;2023-03-31T12:26:51;93204.75;;;17.29;42.93
10606;BME280;5350;42.698;23.148;2023-03-31T12:29:28;93205.63;;;17.06;43.07
10606;BME280;5350;42.698;23.148;2023-03-31T12:31:58;93206.13;;;16.96;42.84
10606;BME280;5350;42.698;23.148;2023-03-31T12:34:26;93198.25;;;16.99;43.88
10606;BME280;5350;42.698;23.148;2023-03-31T12:37:06;93201.13;;;17.22;42.78
10606;BME280;5350;42.698;23.148;2023-03-31T12:39:45;93195.75;;;17.34;42.59
10606;BME280;5350;42.698;23.148;2023-03-31T12:42:47;93185.09;;;17.62;43.34
10606;BME280;5350;42.698;23.148;2023-03-31T12:45:22;93167.56;;;18.07;41.73
10606;BME280;5350;42.698;23.148;2023-03-31T12:48:08;93168.59;;;18.69;40.90
10606;BME280;5350;42.698;23.148;2023-03-31T12:50:52;93162.13;;;19.08;39.67
10606;BME280;5350;42.698;23.148;2023-03-31T12:53:30;93139.34;;;19.33;38.92
10606;BME280;5350;42.698;23.148;2023-03-31T12:56:03;93151.22;;;19.77;38.53
10606;BME280;5350;42.698;23.148;2023-03-31T12:58:41;93145.31;;;19.68;37.77
10606;BME280;5350;42.698;23.148;2023-03-31T13:01:16;93138.94;;;19.99;37.29
10606;BME280;5350;42.698;23.148;2023-03-31T13:03:48;93134.59;;;20.14;36.88
10606;BME280;5350;42.698;23.148;2023-03-31T13:12:19;93112.22;;;21.47;34.89
10606;BME280;5350;42.698;23.148;2023-03-31T13:14:49;93104.19;;;21.51;34.90
10606;BME280;5350;42.698;23.148;2023-03-31T13:17:29;93103.66;;;21.31;35.14
10606;BME280;5350;42.698;23.148;2023-03-31T13:20:14;93089.31;;;21.97;34.61
10606;BME280;5350;42.698;23.148;2023-03-31T13:22:44;93079.44;;;22.08;34.04
10606;BME280;5350;42.698;23.148;2023-03-31T13:25:45;93071.88;;;22.24;34.16
10606;BME280;5350;42.698;23.148;2023-03-31T13:28:31;93053.84;;;22.11;33.22
10606;BME280;5350;42.698;23.148;2023-03-31T13:31:00;93060.31;;;22.10;34.60
10606;BME280;5350;42.698;23.148;2023-03-31T13:33:31;93060.59;;;21.91;34.32
10606;BME280;5350;42.698;23.148;2023-03-31T13:36:16;93043.63;;;22.34;34.32
10606;BME280;5350;42.698;23.148;2023-03-31T13:38:55;93048.28;;;22.48;33.03
10606;BME280;5350;42.698;23.148;2023-03-31T13:41:35;93042.59;;;21.88;33.36